Time;durP1;ratioP1;P1;durP2;ratioP2;P2;SDS_P1;SDS_P2;PMS_P1;PMS_P2;Temp;Humidity;BMP_temperature;BMP_pressure;BME280_temperature;BME280_humidity;BME280_pressure;Samples;Min_cycle;Max_cycle;Signal;HPM_P1;HPM_P2
2022/08/22 00:01:30;;;;;;;5.07;4.67;;;17.70;1.00;;;;;;5091019;28;20780;-54
2022/08/22 00:04:16;;;;;;;5.60;5.10;;;17.70;1.00;;;;;;5093190;28;20472;-54
2022/08/22 00:06:56;;;;;;;5.73;5.20;;;17.70;1.00;;;;;;5088655;28;20899;-56
2022/08/22 00:09:45;;;;;;;6.40;5.80;;;17.60;1.00;;;;;;5093013;28;20436;-54
2022/08/22 00:12:33;;;;;;;5.37;4.87;;;17.60;1.00;;;;;;5092140;28;20498;-56
2022/08/22 00:15:40;;;;;;;7.13;5.70;;;17.60;1.00;;;;;;5092835;28;20423;-55
2022/08/22 00:18:27;;;;;;;6.20;5.40;;;17.50;1.00;;;;;;4990610;28;21022;-55
2022/08/22 00:21:20;;;;;;;8.20;5.43;;;17.50;1.00;;;;;;4987848;28;20427;-54
2022/08/22 00:24:07;;;;;;;5.70;5.20;;;17.50;1.00;;;;;;5070402;28;20443;-56
2022/08/22 00:26:56;;;;;;;6.67;5.10;;;17.50;1.00;;;;;;5090932;28;20453;-54
2022/08/22 00:29:27;;;;;;;6.20;5.50;;;17.50;1.00;;;;;;5086107;28;20441;-55
2022/08/22 00:32:06;;;;;;;5.23;4.53;;;17.40;1.00;;;;;;5091030;28;20417;-55
2022/08/22 00:34:38;;;;;;;5.93;5.07;;;17.40;1.00;;;;;;5088839;28;20537;-55
2022/08/22 00:37:16;;;;;;;7.17;5.50;;;17.40;1.00;;;;;;5091048;28;20427;-54
2022/08/22 00:39:45;;;;;;;6.70;5.50;;;17.40;1.00;;;;;;5091773;28;20500;-54
2022/08/22 00:42:16;;;;;;;6.37;5.73;;;17.30;1.00;;;;;;5092002;28;20426;-54
2022/08/22 00:45:07;;;;;;;7.80;5.30;;;17.30;1.00;;;;;;5091135;28;20403;-55
2022/08/22 00:47:38;;;;;;;5.80;5.20;;;17.30;1.00;;;;;;5091251;28;20451;-54
2022/08/22 00:50:26;;;;;;;6.03;5.47;;;17.30;1.00;;;;;;5091089;28;20782;-58
2022/08/22 00:53:29;;;;;;;6.77;5.33;;;17.40;1.00;;;;;;5092262;28;20749;-55
2022/08/22 00:56:17;;;;;;;5.30;4.90;;;17.40;1.00;;;;;;5033526;28;20422;-57
2022/08/22 00:59:07;;;;;;;10.47;5.53;;;17.30;1.00;;;;;;5091157;28;20456;-55
2022/08/22 01:01:44;;;;;;;5.80;5.20;;;17.30;1.00;;;;;;5091832;28;20441;-55
2022/08/22 01:04:31;;;;;;;5.57;5.17;;;17.30;1.00;;;;;;5080909;28;20567;-56
2022/08/22 01:07:13;;;;;;;7.40;4.70;;;17.30;1.00;;;;;;5091912;28;20474;-55
2022/08/22 01:09:57;;;;;;;5.47;4.97;;;17.30;1.00;;;;;;5091973;28;20797;-57
2022/08/22 01:12:47;;;;;;;14.30;5.87;;;17.30;1.00;;;;;;5090558;28;20926;-54
2022/08/22 01:15:21;;;;;;;6.90;6.20;;;17.30;1.00;;;;;;5091645;28;20444;-54
2022/08/22 01:18:11;;;;;;;10.20;5.33;;;17.20;1.00;;;;;;5089555;28;20444;-55
2022/08/22 01:21:01;;;;;;;5.60;5.10;;;17.20;1.00;;;;;;5091252;28;20428;-57
2022/08/22 01:23:51;;;;;;;6.43;5.43;;;17.20;1.00;;;;;;5076941;28;20515;-55
2022/08/22 01:26:55;;;;;;;6.67;5.87;;;17.40;1.00;;;;;;5087623;28;20412;-55
2022/08/22 01:29:32;;;;;;;6.03;5.07;;;17.20;1.00;;;;;;5091403;28;20430;-56
2022/08/22 01:32:36;;;;;;;5.80;5.30;;;17.20;1.00;;;;;;5091531;28;20585;-54
2022/08/22 01:35:33;;;;;;;5.90;5.10;;;17.10;1.00;;;;;;5047430;28;20447;-55
2022/08/22 01:38:24;;;;;;;8.70;5.40;;;17.20;1.00;;;;;;5088540;28;20423;-55
2022/08/22 01:41:09;;;;;;;5.30;4.80;;;17.20;1.00;;;;;;5090681;28;20437;-56
2022/08/22 01:43:55;;;;;;;6.13;5.53;;;17.20;1.00;;;;;;5090348;28;20704;-55
2022/08/22 01:46:33;;;;;;;6.10;5.60;;;17.10;1.00;;;;;;5091095;28;20497;-56
2022/08/22 01:49:17;;;;;;;6.63;5.13;;;17.10;1.00;;;;;;5088187;28;20452;-56
2022/08/22 01:51:50;;;;;;;6.67;5.97;;;17.10;1.00;;;;;;5091295;28;20432;-56
2022/08/22 01:54:28;;;;;;;9.00;5.30;;;17.20;1.00;;;;;;5091211;28;21015;-55
2022/08/22 01:57:01;;;;;;;5.43;4.93;;;17.20;1.00;;;;;;5088587;28;20419;-56
2022/08/22 01:59:38;;;;;;;9.37;5.63;;;17.10;1.00;;;;;;5089842;28;20929;-56
2022/08/22 02:02:29;;;;;;;5.27;4.87;;;17.10;1.00;;;;;;5089020;28;20490;-57
2022/08/22 02:05:26;;;;;;;8.40;5.13;;;17.20;1.00;;;;;;5089110;28;20520;-54
2022/08/22 02:08:04;;;;;;;5.80;5.20;;;17.10;1.00;;;;;;5051563;28;20778;-55
2022/08/22 02:10:49;;;;;;;5.57;5.03;;;17.10;1.00;;;;;;5090355;28;20402;-55
2022/08/22 02:13:36;;;;;;;5.50;5.10;;;17.10;1.00;;;;;;5088698;28;20452;-55
2022/08/22 02:16:22;;;;;;;5.37;4.80;;;17.10;1.00;;;;;;5089863;28;20479;-55
2022/08/22 02:19:16;;;;;;;6.30;5.37;;;17.10;1.00;;;;;;5091124;28;20433;-55
2022/08/22 02:21:57;;;;;;;6.93;5.33;;;17.10;1.00;;;;;;5089543;28;20451;-54
2022/08/22 02:24:52;;;;;;;5.73;5.23;;;17.10;1.00;;;;;;5089186;28;20441;-55
2022/08/22 02:27:56;;;;;;;6.00;5.47;;;17.00;1.00;;;;;;5087212;28;20416;-55
2022/08/22 02:30:45;;;;;;;5.47;4.97;;;17.00;1.00;;;;;;5084307;28;20497;-55
2022/08/22 02:33:37;;;;;;;5.27;4.73;;;17.00;1.00;;;;;;5089802;28;20552;-55
2022/08/22 02:36:30;;;;;;;7.00;5.13;;;17.00;1.00;;;;;;5079305;28;20420;-56
2022/08/22 02:39:36;;;;;;;5.23;4.83;;;18.80;1.00;;;;;;5089744;28;20450;-56
2022/08/22 02:42:18;;;;;;;5.40;5.00;;;17.00;1.00;;;;;;5090179;28;21296;-56
2022/08/22 02:44:56;;;;;;;5.47;4.63;;;16.90;1.00;;;;;;5090401;28;20478;-55
2022/08/22 02:47:26;;;;;;;5.33;4.93;;;16.90;1.00;;;;;;5087674;28;20458;-56
2022/08/22 02:50:16;;;;;;;5.10;4.63;;;16.90;1.00;;;;;;5089900;28;20415;-56
2022/08/22 02:52:50;;;;;;;6.10;5.50;;;16.90;1.00;;;;;;5089530;28;20979;-55
2022/08/22 02:55:46;;;;;;;4.93;4.53;;;16.90;1.00;;;;;;5072277;28;20526;-55
2022/08/22 02:58:38;;;;;;;5.53;4.97;;;16.90;1.00;;;;;;5081621;28;20444;-56
2022/08/22 03:01:12;;;;;;;5.73;5.00;;;16.80;1.00;;;;;;5088630;28;20419;-55
2022/08/22 03:03:41;;;;;;;5.43;4.77;;;16.90;1.00;;;;;;5088554;28;20437;-55
2022/08/22 03:06:08;;;;;;;5.87;5.20;;;;;;;;;;5089836;28;20433;-56
2022/08/22 03:08:38;;;;;;;8.00;5.07;;;17.00;1.00;;;;;;5088692;28;20951;-56
2022/08/22 03:11:07;;;;;;;5.37;4.87;;;17.00;1.00;;;;;;5070723;28;20437;-56
2022/08/22 03:14:02;;;;;;;8.67;5.23;;;17.10;1.00;;;;;;5089972;28;20441;-56
2022/08/22 03:16:36;;;;;;;5.83;5.33;;;17.10;1.00;;;;;;5087080;28;21025;-55
2022/08/22 03:19:29;;;;;;;6.10;5.50;;;17.00;1.00;;;;;;5088897;28;20773;-56
2022/08/22 03:21:56;;;;;;;6.70;5.70;;;17.00;1.00;;;;;;5087544;28;20444;-57
2022/08/22 03:24:28;;;;;;;6.10;5.60;;;17.20;1.00;;;;;;5087612;28;20496;-57
2022/08/22 03:27:20;;;;;;;5.53;4.83;;;17.10;1.00;;;;;;5088598;28;20997;-55
2022/08/22 03:29:58;;;;;;;6.27;5.57;;;17.20;1.00;;;;;;5087863;28;20936;-56
2022/08/22 03:32:46;;;;;;;5.70;4.47;;;17.20;1.00;;;;;;5089723;28;20414;-54
2022/08/22 03:35:32;;;;;;;5.43;4.93;;;17.20;1.00;;;;;;5086043;28;20449;-55
2022/08/22 03:38:32;;;;;;;7.93;5.50;;;17.10;1.00;;;;;;5088892;28;20798;-56
2022/08/22 03:41:30;;;;;;;6.30;5.73;;;17.20;1.00;;;;;;5089618;28;20501;-56
2022/08/22 03:44:20;;;;;;;6.40;5.37;;;17.10;1.00;;;;;;5086916;28;20439;-56
2022/08/22 03:47:02;;;;;;;6.40;5.80;;;17.10;1.00;;;;;;5086700;28;20423;-55
2022/08/22 03:49:51;;;;;;;6.83;5.33;;;17.10;1.00;;;;;;5086461;28;20464;-56
2022/08/22 03:53:07;;;;;;;4.97;4.53;;;17.00;1.00;;;;;;5089507;28;20446;-55
2022/08/22 03:56:04;;;;;;;5.60;5.10;;;16.90;1.00;;;;;;5084279;28;20481;-57
2022/08/22 03:59:01;;;;;;;5.17;4.50;;;16.90;1.00;;;;;;5085629;28;20791;-56
2022/08/22 04:01:58;;;;;;;7.33;5.90;;;17.30;1.00;;;;;;5086928;28;20478;-54
2022/08/22 04:05:02;;;;;;;4.53;4.17;;;16.90;1.00;;;;;;5087348;28;20468;-55
2022/08/22 04:07:59;;;;;;;4.83;4.23;;;16.90;1.00;;;;;;5061456;28;20506;-56
2022/08/22 04:10:43;;;;;;;7.37;5.00;;;16.80;1.00;;;;;;5087848;28;20441;-55
2022/08/22 04:13:20;;;;;;;5.83;5.33;;;16.80;1.00;;;;;;5086304;28;20478;-55
2022/08/22 04:16:07;;;;;;;6.10;4.93;;;16.70;1.00;;;;;;5089212;28;20535;-57
2022/08/22 04:18:59;;;;;;;6.83;5.30;;;16.80;1.00;;;;;;5090099;28;20950;-58
2022/08/22 04:21:56;;;;;;;8.50;5.30;;;16.90;1.00;;;;;;5089528;28;20490;-58
2022/08/22 04:24:31;;;;;;;6.00;5.40;;;17.00;1.00;;;;;;5091800;28;20479;-57
2022/08/22 04:27:15;;;;;;;5.70;5.17;;;17.00;1.00;;;;;;5091786;28;20403;-57
2022/08/22 04:30:18;;;;;;;5.50;4.93;;;17.00;1.00;;;;;;5091883;28;20434;-58
2022/08/22 04:32:50;;;;;;;11.10;5.47;;;17.00;1.00;;;;;;5077056;28;20806;-58
2022/08/22 04:35:40;;;;;;;5.97;5.37;;;17.00;1.00;;;;;;5074868;28;20426;-56
2022/08/22 04:38:14;;;;;;;5.53;5.03;;;17.00;1.00;;;;;;5092090;28;20443;-59
2022/08/22 04:40:54;;;;;;;6.90;5.20;;;17.10;1.00;;;;;;5093287;28;20421;-57
2022/08/22 04:44:06;;;;;;;5.90;5.40;;;17.10;1.00;;;;;;5093337;28;20801;-58
2022/08/22 04:46:40;;;;;;;6.03;4.77;;;17.10;1.00;;;;;;5065231;28;20417;-56
2022/08/22 04:49:15;;;;;;;4.60;4.30;;;17.20;1.00;;;;;;5093319;28;21005;-57
2022/08/22 04:52:04;;;;;;;7.23;5.43;;;17.20;1.00;;;;;;5092027;28;20442;-56
2022/08/22 04:54:47;;;;;;;9.43;5.83;;;17.20;1.00;;;;;;5091638;28;20444;-55
2022/08/22 04:57:26;;;;;;;6.33;5.30;;;17.30;1.00;;;;;;5090662;28;20444;-55
2022/08/22 05:00:01;;;;;;;6.83;5.27;;;17.30;1.00;;;;;;5092457;28;20917;-57
2022/08/22 05:02:27;;;;;;;6.43;5.20;;;17.40;1.00;;;;;;5092169;28;20465;-55
2022/08/22 05:05:17;;;;;;;6.07;4.93;;;17.50;1.00;;;;;;5092625;28;20406;-55
2022/08/22 05:07:57;;;;;;;5.80;5.20;;;17.50;1.00;;;;;;5092524;28;20189;-55
2022/08/22 05:10:42;;;;;;;8.33;5.57;;;17.40;1.00;;;;;;5092306;28;20464;-55
2022/08/22 05:13:16;;;;;;;5.70;5.10;;;17.50;1.00;;;;;;5090580;28;20839;-54
2022/08/22 05:15:47;;;;;;;6.30;5.70;;;17.70;1.00;;;;;;5090095;28;20917;-55
2022/08/22 05:18:20;;;;;;;9.90;5.50;;;17.70;1.00;;;;;;5090701;28;20441;-56
2022/08/22 05:20:48;;;;;;;5.70;5.20;;;17.70;1.00;;;;;;5091805;28;20433;-55
2022/08/22 05:23:31;;;;;;;5.27;4.83;;;17.70;1.00;;;;;;5091777;28;20439;-54
2022/08/22 05:26:01;;;;;;;5.70;5.17;;;18.00;1.00;;;;;;5091656;28;20433;-54
2022/08/22 05:28:33;;;;;;;5.80;5.30;;;17.80;1.00;;;;;;5091369;28;20407;-54
2022/08/22 05:31:07;;;;;;;5.43;5.03;;;17.80;1.00;;;;;;5089965;28;20785;-55
2022/08/22 05:33:41;;;;;;;7.80;5.53;;;17.90;1.00;;;;;;5091669;28;20439;-57
2022/08/22 05:36:12;;;;;;;7.67;5.60;;;17.90;1.00;;;;;;5091154;28;20444;-56
2022/08/22 05:38:44;;;;;;;6.00;5.40;;;18.00;1.00;;;;;;5091889;28;20622;-57
2022/08/22 05:41:17;;;;;;;8.37;5.30;;;18.00;1.00;;;;;;5088606;28;20470;-55
2022/08/22 05:43:44;;;;;;;8.13;6.47;;;18.00;1.00;;;;;;5089961;28;20464;-55
2022/08/22 05:46:40;;;;;;;5.50;5.00;;;18.20;1.00;;;;;;5091460;28;20433;-56
2022/08/22 05:49:19;;;;;;;9.20;5.33;;;18.20;1.00;;;;;;5091668;28;20451;-56
2022/08/22 05:52:07;;;;;;;6.20;5.70;;;18.20;1.00;;;;;;5088715;28;20436;-55
2022/08/22 05:54:46;;;;;;;8.83;5.50;;;18.20;1.00;;;;;;5089749;28;20407;-56
2022/08/22 05:57:35;;;;;;;8.63;5.83;;;18.20;1.00;;;;;;5091186;28;20790;-56
2022/08/22 06:00:10;;;;;;;6.27;5.50;;;18.30;1.00;;;;;;5090334;28;20807;-55
2022/08/22 06:03:07;;;;;;;7.93;6.13;;;18.40;1.00;;;;;;5087373;28;20496;-56
2022/08/22 06:05:38;;;;;;;7.13;6.43;;;18.60;1.00;;;;;;5090939;28;20510;-55
2022/08/22 06:08:18;;;;;;;12.63;5.80;;;18.60;1.00;;;;;;5090708;28;20451;-54
2022/08/22 06:10:54;;;;;;;7.20;6.33;;;18.70;1.00;;;;;;5089540;28;20801;-55
2022/08/22 06:13:33;;;;;;;6.77;6.17;;;18.70;1.00;;;;;;5089726;28;20433;-54
2022/08/22 06:16:15;;;;;;;7.10;6.50;;;18.80;1.00;;;;;;5090426;28;20956;-56
2022/08/22 06:18:43;;;;;;;7.17;6.43;;;19.10;1.00;;;;;;5089214;28;20529;-56
2022/08/22 06:21:17;;;;;;;7.07;6.37;;;19.20;1.00;;;;;;5090379;28;20927;-54
2022/08/22 06:23:55;;;;;;;8.90;6.80;;;19.30;1.00;;;;;;5090250;28;20948;-54
2022/08/22 06:26:24;;;;;;;9.10;6.63;;;19.30;1.00;;;;;;5088060;28;20957;-56
2022/08/22 06:28:53;;;;;;;11.63;6.93;;;19.30;1.00;;;;;;5087942;28;20465;-55
2022/08/22 06:31:30;;;;;;;7.47;6.60;;;19.30;1.00;;;;;;5089620;28;20433;-57
2022/08/22 06:33:58;;;;;;;8.10;6.83;;;19.40;1.00;;;;;;5088698;28;20418;-55
2022/08/22 06:36:32;;;;;;;7.30;6.67;;;19.30;1.00;;;;;;5088126;28;20429;-56
2022/08/22 06:39:16;;;;;;;8.03;7.23;;;19.50;1.00;;;;;;5088983;28;20820;-56
2022/08/22 06:41:48;;;;;;;8.80;6.33;;;19.60;1.00;;;;;;5087763;28;20519;-56
2022/08/22 06:44:19;;;;;;;9.37;6.30;;;19.60;1.00;;;;;;5089220;28;20475;-57
2022/08/22 06:46:49;;;;;;;11.97;7.27;;;19.50;1.00;;;;;;5089330;28;20749;-55
2022/08/22 06:49:15;;;;;;;7.30;6.63;;;19.60;1.00;;;;;;5087357;28;20516;-56
2022/08/22 06:51:42;;;;;;;11.53;7.03;;;19.60;1.00;;;;;;5086992;28;20447;-56
2022/08/22 06:54:16;;;;;;;8.17;7.47;;;19.70;1.00;;;;;;5089074;28;20437;-56
2022/08/22 06:56:47;;;;;;;7.93;6.80;;;19.80;1.00;;;;;;5070412;28;20415;-55
2022/08/22 06:59:17;;;;;;;8.40;7.07;;;19.80;1.00;;;;;;5088499;28;20418;-56
2022/08/22 07:01:56;;;;;;;7.40;6.37;;;19.90;1.00;;;;;;5088553;28;20961;-55
2022/08/22 07:04:25;;;;;;;12.07;7.80;;;20.00;1.00;;;;;;5071665;28;20461;-55
2022/08/22 07:06:52;;;;;;;12.27;7.10;;;20.10;1.00;;;;;;5089423;28;20826;-56
2022/08/22 07:09:40;;;;;;;8.37;7.40;;;20.20;1.00;;;;;;5089393;28;20436;-54
2022/08/22 07:12:20;;;;;;;7.33;6.47;;;20.10;1.00;;;;;;5088953;28;20412;-56
2022/08/22 07:14:49;;;;;;;7.97;7.17;;;20.30;1.00;;;;;;5090124;28;20912;-55
2022/08/22 07:17:20;;;;;;;10.93;7.37;;;20.40;1.00;;;;;;5087831;28;20445;-56
2022/08/22 07:20:04;;;;;;;8.63;6.77;;;20.50;1.00;;;;;;5088917;28;20419;-56
2022/08/22 07:22:34;;;;;;;10.53;7.57;;;20.70;1.00;;;;;;5085372;28;20475;-57
2022/08/22 07:25:08;;;;;;;7.70;6.90;;;20.80;1.00;;;;;;5087186;28;20443;-56
2022/08/22 07:27:48;;;;;;;11.90;7.10;;;20.90;1.00;;;;;;5087885;28;20795;-56
2022/08/22 07:30:16;;;;;;;8.50;6.80;;;20.80;1.00;;;;;;5089061;28;20442;-55
2022/08/22 07:33:15;;;;;;;7.80;7.10;;;21.00;1.00;;;;;;5086865;28;20541;-57
2022/08/22 07:35:46;;;;;;;15.00;7.60;;;21.20;1.00;;;;;;5050971;28;20434;-56
2022/08/22 07:38:41;;;;;;;8.77;7.20;;;21.20;1.00;;;;;;5089259;28;20476;-56
2022/08/22 07:41:13;;;;;;;10.83;7.37;;;21.10;1.00;;;;;;5088690;28;20481;-56
2022/08/22 07:43:44;;;;;;;9.60;7.63;;;21.20;1.00;;;;;;5089539;28;20463;-56
2022/08/22 07:46:28;;;;;;;8.13;7.33;;;21.50;1.00;;;;;;5088654;28;20970;-56
2022/08/22 07:49:02;;;;;;;13.63;7.27;;;21.40;1.00;;;;;;5087554;28;20421;-54
2022/08/22 07:51:38;;;;;;;8.07;7.10;;;21.60;1.00;;;;;;5089034;28;20436;-55
2022/08/22 07:54:09;;;;;;;8.23;7.40;;;21.60;1.00;;;;;;5089704;28;20493;-55
2022/08/22 07:56:41;;;;;;;9.37;7.00;;;21.60;1.00;;;;;;5089185;28;20483;-56
2022/08/22 07:59:15;;;;;;;7.87;7.07;;;21.80;1.00;;;;;;5092098;28;20490;-56
2022/08/22 08:01:50;;;;;;;7.63;6.37;;;22.00;1.00;;;;;;5090363;28;20420;-56
2022/08/22 08:04:23;;;;;;;7.37;6.57;;;22.10;1.00;;;;;;5093126;28;20494;-55
2022/08/22 08:06:57;;;;;;;9.13;6.87;;;22.10;1.00;;;;;;5093366;28;20441;-56
2022/08/22 08:09:26;;;;;;;10.87;7.27;;;22.50;1.00;;;;;;5093684;28;20500;-54
2022/08/22 08:11:53;;;;;;;8.23;7.17;;;22.40;1.00;;;;;;5092379;28;20535;-56
2022/08/22 08:14:22;;;;;;;7.40;6.77;;;22.70;1.00;;;;;;5090518;28;20440;-55
2022/08/22 08:16:54;;;;;;;7.57;6.70;;;22.60;1.00;;;;;;5092183;28;20441;-55
2022/08/22 08:19:21;;;;;;;15.13;6.47;;;22.70;1.00;;;;;;5089117;28;21067;-55
2022/08/22 08:21:52;;;;;;;11.10;7.53;;;22.80;1.00;;;;;;5092780;28;20501;-56
2022/08/22 08:24:39;;;;;;;7.97;7.17;;;22.90;1.00;;;;;;5092294;28;20452;-54
2022/08/22 08:30:04;;;;;;;8.23;6.33;;;23.10;1.00;;;;;;5091985;28;20426;-55
2022/08/22 08:32:33;;;;;;;7.57;6.30;;;23.50;1.00;;;;;;5092857;28;20773;-55
2022/08/22 08:35:18;;;;;;;10.10;6.77;;;23.80;1.00;;;;;;5092218;28;20915;-55
2022/08/22 08:37:48;;;;;;;8.50;6.40;;;24.10;1.00;;;;;;5091568;28;20506;-55
2022/08/22 08:40:27;;;;;;;8.90;7.00;;;24.10;1.00;;;;;;5090198;28;20452;-55
2022/08/22 08:43:33;;;;;;;7.83;7.03;;;24.20;1.00;;;;;;5090919;28;20463;-54
2022/08/22 08:46:13;;;;;;;6.87;6.17;;;24.10;1.00;;;;;;5092579;28;20753;-54
2022/08/22 08:49:15;;;;;;;8.73;6.30;;;23.90;1.00;;;;;;5088471;28;20519;-56
2022/08/22 08:52:09;;;;;;;7.37;6.70;;;24.30;1.00;;;;;;5092773;28;20885;-55
2022/08/22 08:54:56;;;;;;;6.93;5.50;;;24.40;1.00;;;;;;5092550;28;20433;-56
2022/08/22 08:57:50;;;;;;;5.43;4.00;;;24.50;1.00;;;;;;5091803;28;20958;-55
2022/08/22 09:00:40;;;;;;;6.10;3.20;;;24.10;1.00;;;;;;5092724;28;20437;-55
2022/08/22 09:03:34;;;;;;;6.53;3.60;;;23.50;1.00;;;;;;5091895;28;20592;-56
2022/08/22 09:06:34;;;;;;;7.20;4.47;;;23.40;1.00;;;;;;5091520;28;20409;-54
2022/08/22 09:09:05;;;;;;;7.13;4.13;;;23.50;1.00;;;;;;5088542;28;20429;-56
2022/08/22 09:11:53;;;;;;;7.20;4.33;;;23.50;1.00;;;;;;5090129;28;20451;-56
2022/08/22 09:14:34;;;;;;;5.43;4.53;;;23.40;1.00;;;;;;5089209;28;20539;-56
2022/08/22 09:17:24;;;;;;;5.40;4.37;;;23.40;1.00;;;;;;5091066;28;20407;-54
2022/08/22 09:20:11;;;;;;;5.83;4.10;;;23.50;1.00;;;;;;5092343;28;20403;-55
2022/08/22 09:23:16;;;;;;;4.67;4.10;;;23.60;1.00;;;;;;5091899;28;20461;-56
2022/08/22 09:25:49;;;;;;;4.23;3.30;;;23.60;1.00;;;;;;5074035;28;20532;-55
2022/08/22 09:28:36;;;;;;;6.73;3.40;;;23.50;1.00;;;;;;5092414;28;20433;-56
2022/08/22 09:31:31;;;;;;;4.53;3.40;;;24.00;1.00;;;;;;5092264;28;20437;-56
2022/08/22 09:34:18;;;;;;;4.43;3.50;;;24.00;1.00;;;;;;5091036;28;20848;-54
2022/08/22 09:36:50;;;;;;;3.80;3.33;;;23.80;1.00;;;;;;5091961;28;21034;-56
2022/08/22 09:39:24;;;;;;;5.97;2.70;;;23.80;1.00;;;;;;5091906;28;20949;-54
2022/08/22 09:42:03;;;;;;;9.97;6.57;;;23.70;1.00;;;;;;5091322;28;20447;-55
2022/08/22 09:44:41;;;;;;;4.27;3.77;;;24.00;1.00;;;;;;5091749;28;20906;-55
2022/08/22 09:47:16;;;;;;;4.27;3.50;;;23.60;1.00;;;;;;5091770;28;20952;-55
2022/08/22 09:49:47;;;;;;;3.20;2.90;;;23.50;1.00;;;;;;5091808;28;20402;-55
2022/08/22 09:52:52;;;;;;;4.50;3.37;;;23.60;1.00;;;;;;5091468;28;20494;-55
2022/08/22 09:55:23;;;;;;;4.07;3.60;;;23.70;1.00;;;;;;5090555;28;20411;-56
2022/08/22 09:58:06;;;;;;;3.43;3.13;;;23.60;1.00;;;;;;5091633;28;20545;-55
2022/08/22 10:00:49;;;;;;;4.13;3.37;;;23.70;1.00;;;;;;5091502;28;20436;-54
2022/08/22 10:03:31;;;;;;;3.40;3.10;;;24.00;1.00;;;;;;5091758;28;20460;-55
2022/08/22 10:06:11;;;;;;;4.07;3.07;;;24.20;1.00;;;;;;5091063;28;20593;-55
2022/08/22 10:09:00;;;;;;;3.47;2.80;;;24.30;1.00;;;;;;5090026;28;20541;-55
2022/08/22 10:11:32;;;;;;;3.80;2.60;;;24.00;1.00;;;;;;5090925;28;20441;-56
2022/08/22 10:14:16;;;;;;;2.70;2.50;;;24.20;1.00;;;;;;5090981;28;20428;-54
2022/08/22 10:16:54;;;;;;;3.80;3.00;;;24.30;1.00;;;;;;5091176;28;20411;-55
2022/08/22 10:19:56;;;;;;;4.17;2.83;;;24.50;1.00;;;;;;5091304;28;20459;-54
2022/08/22 10:22:40;;;;;;;5.17;2.93;;;24.80;1.00;;;;;;5058415;28;20761;-56
2022/08/22 10:25:24;;;;;;;4.40;3.50;;;25.00;1.00;;;;;;5072820;28;20573;-55
2022/08/22 10:28:08;;;;;;;3.00;2.80;;;24.90;1.00;;;;;;5091222;28;20399;-55
2022/08/22 10:30:59;;;;;;;5.13;3.03;;;25.20;1.00;;;;;;5090867;28;20792;-57
2022/08/22 10:33:24;;;;;;;5.30;2.80;;;25.80;1.00;;;;;;5073444;28;20827;-55
2022/08/22 10:35:50;;;;;;;3.23;2.93;;;25.90;1.00;;;;;;5090829;28;20479;-55
2022/08/22 10:38:24;;;;;;;3.80;2.67;;;25.30;1.00;;;;;;5090777;28;20245;-56
2022/08/22 10:40:52;;;;;;;3.40;3.07;;;25.30;1.00;;;;;;5089690;28;20251;-57
2022/08/22 10:43:39;;;;;;;4.67;3.60;;;25.70;1.00;;;;;;5091066;28;20968;-54
2022/08/22 10:46:14;;;;;;;2.90;2.60;;;26.10;1.00;;;;;;5090906;28;20433;-56
2022/08/22 10:48:48;;;;;;;3.27;2.90;;;26.40;1.00;;;;;;5090725;28;20965;-55
2022/08/22 10:51:28;;;;;;;4.27;2.80;;;26.40;1.00;;;;;;5090647;28;20428;-56
2022/08/22 10:54:02;;;;;;;4.00;2.80;;;25.60;1.00;;;;;;5090427;28;20440;-55
2022/08/22 10:56:37;;;;;;;3.80;3.03;;;25.10;1.00;;;;;;5090859;28;20439;-55
2022/08/22 10:59:43;;;;;;;3.80;3.50;;;24.80;1.00;;;;;;5090680;28;20737;-56
2022/08/22 11:02:28;;;;;;;3.93;3.63;;;25.00;1.00;;;;;;5090558;28;20761;-56
2022/08/22 11:05:12;;;;;;;8.57;4.63;;;24.90;1.00;;;;;;5089887;28;20474;-55
2022/08/22 11:07:59;;;;;;;4.07;3.60;;;24.90;1.00;;;;;;5090396;28;20916;-56
2022/08/22 11:10:37;;;;;;;5.00;3.40;;;25.00;1.00;;;;;;5090536;28;20523;-56
2022/08/22 11:13:17;;;;;;;6.00;3.50;;;25.00;1.00;;;;;;5088684;28;20431;-57
2022/08/22 11:16:04;;;;;;;6.27;3.53;;;24.60;1.00;;;;;;5090206;28;20455;-56
2022/08/22 11:18:48;;;;;;;3.80;2.70;;;24.50;1.00;;;;;;5090285;28;20419;-56
2022/08/22 11:21:44;;;;;;;5.17;3.63;;;24.70;1.00;;;;;;5086425;28;20738;-56
2022/08/22 11:24:41;;;;;;;3.87;3.13;;;24.90;1.00;;;;;;5080748;28;20552;-55
2022/08/22 11:27:20;;;;;;;5.63;2.90;;;25.10;1.00;;;;;;5090025;28;20436;-54
2022/08/22 11:30:10;;;;;;;5.50;3.10;;;25.20;1.00;;;;;;5088113;28;20752;-56
2022/08/22 11:32:57;;;;;;;6.37;3.90;;;24.90;1.00;;;;;;5089054;28;20945;-56
2022/08/22 11:35:34;;;;;;;4.53;2.90;;;24.90;1.00;;;;;;5089863;28;20457;-55
2022/08/22 11:38:27;;;;;;;3.47;2.57;;;25.00;1.00;;;;;;5089262;28;21008;-55
2022/08/22 11:41:12;;;;;;;11.23;4.10;;;25.20;1.00;;;;;;5089936;28;20415;-56
2022/08/22 11:43:47;;;;;;;3.50;3.00;;;25.20;1.00;;;;;;5089926;28;20943;-56
2022/08/22 11:46:37;;;;;;;5.00;3.00;;;25.30;1.00;;;;;;5090076;28;20775;-57
2022/08/22 11:49:24;;;;;;;5.70;2.93;;;25.30;1.00;;;;;;5089205;28;20433;-56
2022/08/22 11:52:04;;;;;;;4.30;3.20;;;25.30;1.00;;;;;;5089911;28;20435;-56
2022/08/22 11:54:51;;;;;;;14.83;4.03;;;25.30;1.00;;;;;;5089913;28;20418;-56
2022/08/22 11:57:25;;;;;;;3.37;3.07;;;25.40;1.00;;;;;;5090113;28;20433;-55
2022/08/22 12:00:17;;;;;;;7.03;3.33;;;25.40;1.00;;;;;;5089291;28;20915;-55
2022/08/22 12:03:07;;;;;;;5.33;3.40;;;24.90;1.00;;;;;;5089490;28;20461;-56
2022/08/22 12:05:41;;;;;;;3.20;2.90;;;24.80;1.00;;;;;;5089920;28;20803;-54
2022/08/22 12:08:49;;;;;;;3.20;3.00;;;24.70;1.00;;;;;;5089745;28;20432;-55
2022/08/22 12:11:59;;;;;;;8.03;3.80;;;24.60;1.00;;;;;;5086329;28;20633;-55
2022/08/22 12:14:32;;;;;;;7.07;3.10;;;24.60;1.00;;;;;;5086710;28;20518;-55
2022/08/22 12:17:22;;;;;;;3.50;3.20;;;25.00;1.00;;;;;;5088939;28;20922;-57
2022/08/22 12:20:04;;;;;;;4.30;3.10;;;25.10;1.00;;;;;;5089325;28;20457;-55
2022/08/22 12:22:38;;;;;;;2.93;2.63;;;25.20;1.00;;;;;;5089488;28;20924;-55
2022/08/22 12:25:46;;;;;;;5.57;3.40;;;24.90;1.00;;;;;;5089492;28;20439;-55
2022/08/22 12:28:35;;;;;;;2.97;2.60;;;24.70;1.00;;;;;;5089288;28;20467;-57
2022/08/22 12:31:38;;;;;;;4.17;3.17;;;24.70;1.00;;;;;;5088278;28;20822;-55
2022/08/22 12:34:11;;;;;;;3.97;2.90;;;25.20;1.00;;;;;;5089320;28;20498;-55
2022/08/22 12:37:01;;;;;;;16.20;6.00;;;25.20;1.00;;;;;;5089668;28;20536;-55
2022/08/22 12:39:41;;;;;;;2.83;2.63;;;25.10;1.00;;;;;;5083640;28;20540;-56
2022/08/22 12:42:28;;;;;;;4.80;3.43;;;25.20;1.00;;;;;;5088346;28;20559;-55
2022/08/22 12:45:03;;;;;;;4.80;3.20;;;25.40;1.00;;;;;;5090603;28;20987;-56
2022/08/22 12:47:55;;;;;;;8.77;3.20;;;25.30;1.00;;;;;;5093133;28;20428;-55
2022/08/22 12:50:47;;;;;;;4.20;3.10;;;24.90;1.00;;;;;;5092706;28;20464;-56
2022/08/22 12:53:28;;;;;;;3.33;3.00;;;24.90;1.00;;;;;;5092318;28;20528;-55
2022/08/22 12:56:08;;;;;;;3.40;2.80;;;25.10;1.00;;;;;;5092770;28;20996;-57
2022/08/22 12:59:11;;;;;;;4.30;3.20;;;25.40;1.00;;;;;;5090500;28;20745;-58
2022/08/22 13:01:41;;;;;;;5.27;3.33;;;25.40;1.00;;;;;;5092282;28;20453;-57
2022/08/22 13:04:13;;;;;;;5.67;2.70;;;25.50;1.00;;;;;;5092105;28;20479;-56
2022/08/22 13:06:48;;;;;;;3.90;2.70;;;25.60;1.00;;;;;;5091626;28;20436;-56
2022/08/22 13:09:25;;;;;;;8.27;3.00;;;25.50;1.00;;;;;;5091664;28;20419;-58
2022/08/22 13:11:54;;;;;;;6.63;3.27;;;25.30;1.00;;;;;;5090499;28;20424;-56
2022/08/22 13:14:24;;;;;;;5.13;2.80;;;25.40;1.00;;;;;;5091685;28;20407;-57
2022/08/22 13:16:55;;;;;;;4.97;3.50;;;25.20;1.00;;;;;;5092325;28;20455;-56
2022/08/22 13:19:35;;;;;;;4.67;2.90;;;24.60;1.00;;;;;;5088976;28;20419;-57
2022/08/22 13:22:12;;;;;;;6.10;3.17;;;24.60;1.00;;;;;;5091975;28;20949;-57
2022/08/22 13:24:54;;;;;;;4.07;2.80;;;24.40;1.00;;;;;;5072512;28;20442;-57
2022/08/22 13:27:22;;;;;;;3.00;2.70;;;24.40;1.00;;;;;;5086043;28;20592;-57
2022/08/22 13:29:54;;;;;;;7.33;3.20;;;24.40;1.00;;;;;;5092188;28;20634;-57
2022/08/22 13:32:40;;;;;;;3.97;3.57;;;24.20;1.00;;;;;;5091734;28;20847;-56
2022/08/22 13:35:19;;;;;;;3.67;3.30;;;24.10;1.00;;;;;;5091372;28;20735;-56
2022/08/22 13:37:48;;;;;;;5.23;3.60;;;24.00;1.00;;;;;;5091924;28;20482;-56
2022/08/22 13:40:23;;;;;;;3.73;3.37;;;23.90;1.00;;;;;;5091752;28;20469;-58
2022/08/22 13:42:59;;;;;;;3.77;3.30;;;23.90;1.00;;;;;;5091555;28;20435;-57
2022/08/22 13:45:27;;;;;;;9.20;3.67;;;24.00;1.00;;;;;;5091555;28;20515;-56
2022/08/22 13:48:00;;;;;;;4.77;3.07;;;24.10;1.00;;;;;;5091722;28;20961;-55
2022/08/22 13:50:29;;;;;;;5.77;3.50;;;24.10;1.00;;;;;;5091184;28;20823;-57
2022/08/22 13:53:21;;;;;;;3.80;3.00;;;24.10;1.00;;;;;;5090932;28;20457;-57
2022/08/22 13:55:50;;;;;;;3.83;2.47;;;24.00;1.00;;;;;;5090068;28;20965;-58
2022/08/22 13:58:36;;;;;;;2.90;2.70;;;23.80;1.00;;;;;;5088373;28;20480;-56
2022/08/22 14:01:05;;;;;;;3.47;2.43;;;23.80;1.00;;;;;;5090966;28;20996;-57
2022/08/22 14:03:44;;;;;;;2.80;2.60;;;23.90;1.00;;;;;;5091124;28;20950;-54
2022/08/22 14:06:29;;;;;;;3.83;2.60;;;23.90;1.00;;;;;;5090522;28;20682;-56
2022/08/22 14:09:11;;;;;;;3.03;2.73;;;24.10;1.00;;;;;;5090894;28;20509;-55
2022/08/22 14:11:45;;;;;;;2.77;2.50;;;24.20;1.00;;;;;;5090616;28;21024;-56
2022/08/22 14:14:19;;;;;;;3.43;2.80;;;24.30;1.00;;;;;;5089385;28;20451;-54
2022/08/22 14:16:50;;;;;;;2.60;2.40;;;24.20;1.00;;;;;;5089458;28;20451;-54